Time;durP1;ratioP1;P1;durP2;ratioP2;P2;SDS_P1;SDS_P2;PMS_P1;PMS_P2;Temp;Humidity;BMP_temperature;BMP_pressure;BME280_temperature;BME280_humidity;BME280_pressure;Samples;Min_cycle;Max_cycle;Signal;HPM_P1;HPM_P2
2022/01/13 00:02:06;;;;;;;37.13;17.40;;;-5.20;99.90;;;;;;5114976;28;20196;-77
2022/01/13 00:04:32;;;;;;;39.80;18.83;;;-5.20;99.90;;;;;;5113765;28;20662;-77
2022/01/13 00:06:57;;;;;;;34.37;15.80;;;-5.20;99.90;;;;;;5113805;28;20171;-77
2022/01/13 00:09:23;;;;;;;33.17;14.83;;;-5.40;99.90;;;;;;5115179;28;20751;-77
2022/01/13 00:11:50;;;;;;;33.40;16.03;;;-5.50;99.90;;;;;;5113448;28;20545;-76
2022/01/13 00:19:47;;;;;;;36.53;16.13;;;-5.60;99.90;;;;;;5115336;28;20798;-76
2022/01/13 00:22:37;;;;;;;36.50;17.97;;;-5.60;99.90;;;;;;5114828;28;20401;-76
2022/01/13 00:25:01;;;;;;;36.47;17.10;;;-5.60;99.90;;;;;;5114757;27;20936;-77
2022/01/13 00:27:29;;;;;;;28.67;15.10;;;-5.60;99.90;;;;;;5113491;28;20446;-76
2022/01/13 00:29:57;;;;;;;34.03;15.97;;;-5.70;99.90;;;;;;5113271;28;20437;-76
2022/01/13 00:32:26;;;;;;;33.73;16.03;;;-5.70;99.90;;;;;;5112942;28;20412;-77
2022/01/13 00:34:52;;;;;;;36.00;14.93;;;-5.70;99.90;;;;;;5115119;28;20496;-76
2022/01/13 00:37:17;;;;;;;33.37;16.30;;;-5.80;99.90;;;;;;5113076;28;20495;-77
2022/01/13 00:39:43;;;;;;;31.63;15.60;;;-5.70;99.90;;;;;;5114477;28;20202;-76
2022/01/13 00:42:08;;;;;;;39.77;17.67;;;-5.70;99.90;;;;;;5112984;28;20213;-76
2022/01/13 00:44:38;;;;;;;42.03;18.93;;;-5.80;99.90;;;;;;5114181;28;20205;-77
2022/01/13 00:47:08;;;;;;;33.80;16.17;;;-5.70;99.90;;;;;;5113078;28;20180;-76
2022/01/13 00:49:34;;;;;;;34.27;17.43;;;-5.70;99.90;;;;;;5112941;28;20497;-76
2022/01/13 00:51:59;;;;;;;34.83;17.60;;;-5.70;99.90;;;;;;5114329;28;20873;-76
2022/01/13 00:54:25;;;;;;;35.87;17.67;;;-5.60;99.90;;;;;;5114232;28;20416;-76
2022/01/13 00:56:51;;;;;;;39.57;17.10;;;-5.60;99.90;;;;;;5112863;28;20186;-76
2022/01/13 00:59:17;;;;;;;34.47;17.40;;;-5.50;99.90;;;;;;5114190;28;20193;-76
2022/01/13 01:01:48;;;;;;;34.50;15.13;;;-5.50;99.90;;;;;;5113933;28;20569;-76
2022/01/13 01:04:14;;;;;;;30.97;14.50;;;-5.70;99.90;;;;;;5113554;28;20526;-76
2022/01/13 01:06:40;;;;;;;31.30;14.83;;;-5.80;99.90;;;;;;5114407;28;20464;-76
2022/01/13 01:09:19;;;;;;;30.70;15.87;;;-5.90;99.90;;;;;;5114390;28;20431;-76
2022/01/13 01:11:47;;;;;;;27.20;13.50;;;-5.90;99.90;;;;;;5113952;28;20402;-76
2022/01/13 01:14:15;;;;;;;30.90;13.77;;;-6.00;99.90;;;;;;5114000;28;20443;-76
2022/01/13 01:16:41;;;;;;;23.60;13.60;;;-6.10;99.90;;;;;;5112759;28;20430;-76
2022/01/13 01:19:08;;;;;;;29.90;13.43;;;-6.10;99.90;;;;;;5114186;28;20526;-77
2022/01/13 01:24:30;;;;;;;28.87;13.23;;;-6.10;99.90;;;;;;5114027;28;20407;-77
2022/01/13 01:27:07;;;;;;;26.53;13.33;;;-6.10;99.90;;;;;;5114181;28;20391;-76
2022/01/13 01:29:44;;;;;;;22.77;12.53;;;-6.20;99.90;;;;;;5112536;28;20481;-76
2022/01/13 01:32:14;;;;;;;24.00;12.80;;;-6.10;99.90;;;;;;5113776;28;20395;-76
2022/01/13 01:37:17;;;;;;;24.80;12.17;;;-6.20;99.90;;;;;;5113759;28;20410;-77
2022/01/13 01:39:45;;;;;;;27.43;14.47;;;-6.30;99.90;;;;;;5112290;28;20814;-76
2022/01/13 01:42:11;;;;;;;30.03;13.83;;;-6.20;99.90;;;;;;5113483;28;20855;-76
2022/01/13 01:44:43;;;;;;;29.03;14.33;;;-6.20;99.90;;;;;;5118084;28;20410;-76
2022/01/13 01:47:13;;;;;;;30.70;15.07;;;-6.20;99.90;;;;;;5116495;28;20408;-76
2022/01/13 01:49:42;;;;;;;28.20;13.93;;;-6.20;99.90;;;;;;5116382;28;20486;-76
2022/01/13 01:52:10;;;;;;;26.50;13.13;;;-6.30;99.90;;;;;;5116080;28;20418;-76
2022/01/13 01:54:35;;;;;;;31.10;14.93;;;-6.30;99.90;;;;;;5117569;28;20419;-76
2022/01/13 01:57:02;;;;;;;27.03;15.00;;;-6.30;99.90;;;;;;5117392;28;20433;-76
2022/01/13 01:59:31;;;;;;;30.57;14.23;;;-6.20;99.90;;;;;;5117715;28;20218;-76
2022/01/13 02:01:57;;;;;;;31.17;14.83;;;-6.30;99.90;;;;;;5115786;28;21000;-76
2022/01/13 02:04:26;;;;;;;27.10;12.87;;;-6.30;99.90;;;;;;5117350;28;20412;-76
2022/01/13 02:06:53;;;;;;;23.53;13.57;;;-6.30;99.90;;;;;;5116143;28;20419;-76
2022/01/13 02:09:20;;;;;;;23.20;13.63;;;-6.50;99.90;;;;;;5115936;28;20447;-76
2022/01/13 02:11:50;;;;;;;22.00;12.00;;;-6.60;99.90;;;;;;5116965;28;20415;-76
2022/01/13 02:17:02;;;;;;;25.80;11.80;;;-6.80;99.90;;;;;;5117605;28;20563;-76
2022/01/13 02:19:29;;;;;;;23.23;11.83;;;-6.90;99.90;;;;;;5115865;28;20997;-76
2022/01/13 02:21:55;;;;;;;24.80;12.47;;;-7.00;99.90;;;;;;5116872;27;20466;-76
2022/01/13 02:24:21;;;;;;;24.57;13.00;;;-7.00;99.90;;;;;;5116992;28;20410;-76
2022/01/13 02:26:46;;;;;;;22.10;12.50;;;-7.00;99.90;;;;;;5117110;28;20265;-76
2022/01/13 02:29:12;;;;;;;23.00;12.03;;;-7.00;99.90;;;;;;5116743;28;20190;-76
2022/01/13 02:31:38;;;;;;;22.90;10.90;;;-7.00;99.90;;;;;;5115455;28;20707;-76
2022/01/13 02:34:03;;;;;;;24.17;11.87;;;-7.00;99.90;;;;;;5116834;28;20686;-76
2022/01/13 02:36:30;;;;;;;22.90;11.87;;;-7.00;99.90;;;;;;5115528;28;20184;-76
2022/01/13 02:38:57;;;;;;;12.17;7.83;;;-7.00;99.90;;;;;;5115451;28;20236;-76
2022/01/13 02:41:25;;;;;;;19.33;11.43;;;-7.10;99.90;;;;;;5116389;28;20466;-76
2022/01/13 02:43:55;;;;;;;20.50;9.23;;;-7.20;99.90;;;;;;5115409;28;20415;-76
2022/01/13 02:49:06;;;;;;;19.10;10.00;;;-7.40;99.90;;;;;;5117210;28;20545;-76
2022/01/13 02:51:32;;;;;;;23.80;11.17;;;-7.40;99.90;;;;;;5117710;28;20414;-76
2022/01/13 02:53:57;;;;;;;16.93;9.37;;;-7.50;99.90;;;;;;5116079;28;20421;-76
2022/01/13 02:56:23;;;;;;;18.77;9.57;;;-7.50;99.90;;;;;;5116296;28;20177;-76
2022/01/13 02:58:49;;;;;;;17.47;9.43;;;-7.50;99.90;;;;;;5116186;28;20174;-76
2022/01/13 03:01:15;;;;;;;17.23;9.83;;;-7.50;99.90;;;;;;5114590;28;20260;-76
2022/01/13 03:03:42;;;;;;;19.67;11.03;;;-7.50;99.90;;;;;;5115034;28;20711;-76
2022/01/13 03:06:10;;;;;;;24.60;11.23;;;-7.40;99.90;;;;;;5116369;28;20634;-76
2022/01/13 03:08:37;;;;;;;21.03;10.53;;;-7.30;99.90;;;;;;5114835;28;20443;-76
2022/01/13 03:11:04;;;;;;;17.70;10.13;;;-7.20;99.90;;;;;;5114737;28;20471;-76
2022/01/13 03:13:30;;;;;;;19.40;10.20;;;-7.20;99.90;;;;;;5115439;28;20872;-76
2022/01/13 03:15:56;;;;;;;17.03;8.97;;;-7.30;99.90;;;;;;5114922;28;20505;-76
2022/01/13 03:18:21;;;;;;;14.00;7.50;;;-7.40;99.90;;;;;;5115965;28;20453;-76
2022/01/13 03:20:47;;;;;;;17.77;9.90;;;-7.40;99.90;;;;;;5114320;28;20212;-76
2022/01/13 03:23:18;;;;;;;18.27;9.97;;;-7.50;99.90;;;;;;5114578;28;20172;-76
2022/01/13 03:25:45;;;;;;;15.87;9.27;;;-7.50;99.90;;;;;;5114671;28;20204;-76
2022/01/13 03:28:16;;;;;;;19.03;9.47;;;-7.60;99.90;;;;;;5115754;28;20414;-77
2022/01/13 03:30:45;;;;;;;20.83;11.40;;;-7.60;99.90;;;;;;5114227;28;20438;-76
2022/01/13 03:33:12;;;;;;;20.47;10.37;;;-7.60;99.90;;;;;;5115435;28;20419;-76
2022/01/13 03:35:40;;;;;;;16.07;9.93;;;-7.50;99.90;;;;;;5116499;28;20417;-76
2022/01/13 03:38:06;;;;;;;19.93;10.77;;;-7.50;99.90;;;;;;5116002;28;20777;-76
2022/01/13 03:40:33;;;;;;;18.10;10.30;;;-7.40;99.90;;;;;;5114063;28;20467;-76
2022/01/13 03:43:01;;;;;;;20.70;10.17;;;-7.30;99.90;;;;;;5114381;28;20409;-76
2022/01/13 03:45:27;;;;;;;19.80;10.40;;;-7.30;99.90;;;;;;5114096;28;20450;-76
2022/01/13 03:47:53;;;;;;;20.70;10.80;;;-7.30;99.90;;;;;;5114444;28;20504;-76
2022/01/13 03:50:19;;;;;;;21.17;11.50;;;-7.30;99.90;;;;;;5113867;28;20526;-76
2022/01/13 03:53:26;;;;;;;21.83;11.67;;;-7.30;99.90;;;;;;5115198;28;20524;-76
2022/01/13 03:56:19;;;;;;;21.07;10.93;;;-7.20;99.90;;;;;;5087185;28;20677;-76
2022/01/13 03:59:15;;;;;;;17.43;10.30;;;-7.10;99.90;;;;;;5115066;28;20401;-76
2022/01/13 04:01:59;;;;;;;23.00;10.93;;;-7.10;99.90;;;;;;5113093;28;20465;-76
2022/01/13 08:07:09;;;;;;;7.23;4.50;;;;;;;;;;5112237;27;21077;-76
2022/01/13 08:09:35;;;;;;;9.17;5.30;;;;;;;;;;5106474;28;20490;-75
2022/01/13 08:12:01;;;;;;;13.23;7.87;;;-6.60;99.90;;;;;;5090521;28;20454;-76
2022/01/13 08:14:26;;;;;;;13.53;9.17;;;-6.60;99.90;;;;;;5090352;28;20256;-76
2022/01/13 08:16:56;;;;;;;16.33;8.00;;;-6.60;99.90;;;;;;5091473;28;20218;-76
2022/01/13 08:22:06;;;;;;;14.00;7.20;;;-6.40;99.90;;;;;;5091709;28;20395;-76
2022/01/13 08:24:32;;;;;;;16.80;9.63;;;-6.00;99.90;;;;;;5091319;28;20405;-76
2022/01/13 08:26:58;;;;;;;20.80;9.57;;;-5.30;99.90;;;;;;5091561;28;20211;-76
2022/01/13 08:29:23;;;;;;;17.67;9.10;;;-4.60;99.90;;;;;;5091455;28;20675;-77
2022/01/13 08:31:49;;;;;;;12.47;7.30;;;-3.80;99.90;;;;;;5091105;28;20248;-76
2022/01/13 08:34:16;;;;;;;12.90;7.00;;;-3.40;99.90;;;;;;5089830;28;20709;-77
2022/01/13 08:36:42;;;;;;;16.10;7.57;;;-3.40;99.90;;;;;;5091550;28;20171;-77
2022/01/13 08:39:08;;;;;;;26.60;12.67;;;-3.20;99.90;;;;;;5090568;28;20455;-77
2022/01/13 08:41:34;;;;;;;24.17;11.23;;;-3.10;99.90;;;;;;5090630;28;20407;-79
2022/01/13 08:43:59;;;;;;;22.00;10.57;;;-2.80;99.90;;;;;;5089512;28;20425;-77
2022/01/13 08:46:26;;;;;;;15.33;8.97;;;-2.40;99.90;;;;;;5090565;28;20223;-77
2022/01/13 08:48:52;;;;;;;13.60;8.13;;;-2.20;99.90;;;;;;5090741;28;20199;-77
2022/01/13 08:51:18;;;;;;;14.87;9.47;;;-2.10;99.90;;;;;;5090544;28;21029;-78
2022/01/13 08:53:45;;;;;;;13.93;9.37;;;-1.90;99.90;;;;;;5090828;28;20908;-78
2022/01/13 08:56:12;;;;;;;13.87;9.00;;;-1.70;99.90;;;;;;5089886;28;20422;-78
2022/01/13 08:58:37;;;;;;;14.57;9.23;;;-1.70;99.90;;;;;;5091575;28;20413;-78
2022/01/13 09:01:03;;;;;;;15.17;9.30;;;-1.40;99.90;;;;;;5089911;28;20521;-78
2022/01/13 09:03:29;;;;;;;14.93;10.03;;;-0.90;99.90;;;;;;5090973;28;20194;-78
2022/01/13 09:05:55;;;;;;;14.67;10.30;;;-0.90;99.90;;;;;;5090512;28;20243;-78
2022/01/13 09:08:21;;;;;;;14.60;10.10;;;-0.60;99.90;;;;;;5091387;28;20179;-78
2022/01/13 09:10:47;;;;;;;15.13;10.30;;;-0.50;99.90;;;;;;5092481;28;20212;-78
2022/01/13 09:13:15;;;;;;;14.57;10.30;;;-0.50;99.90;;;;;;5092799;28;20647;-78
2022/01/13 09:15:50;;;;;;;14.80;11.50;;;-0.40;99.90;;;;;;5092775;28;20255;-80
2022/01/13 09:18:32;;;;;;;13.87;10.70;;;-0.20;99.90;;;;;;5078310;28;20185;-78
2022/01/13 09:20:58;;;;;;;15.47;10.67;;;-0.20;99.90;;;;;;5090016;28;20286;-79
2022/01/13 09:23:24;;;;;;;14.77;10.43;;;-0.10;99.90;;;;;;5078265;28;20189;-79
2022/01/13 09:25:51;;;;;;;16.30;10.63;;;0.20;99.90;;;;;;5097826;28;20674;-78
2022/01/13 09:28:17;;;;;;;14.33;11.03;;;0.60;99.90;;;;;;5096280;28;20182;-78
2022/01/13 09:30:43;;;;;;;15.17;10.57;;;0.90;99.90;;;;;;5097869;28;20216;-78
2022/01/13 09:33:09;;;;;;;13.10;10.03;;;0.80;99.90;;;;;;5100319;28;20169;-79
2022/01/13 09:35:35;;;;;;;18.13;12.13;;;0.90;99.90;;;;;;5102178;28;20172;-78
2022/01/13 09:38:03;;;;;;;14.63;10.93;;;0.80;99.90;;;;;;5101191;28;20172;-79
2022/01/13 09:40:29;;;;;;;15.43;11.40;;;0.80;99.90;;;;;;5099796;28;20602;-79
2022/01/13 09:42:55;;;;;;;16.43;11.93;;;1.00;99.90;;;;;;5100858;28;20743;-79
2022/01/13 09:45:21;;;;;;;15.93;12.10;;;1.00;99.90;;;;;;5102067;28;20366;-78
2022/01/13 09:47:48;;;;;;;18.23;12.10;;;1.10;99.90;;;;;;5103002;28;20252;-78
2022/01/13 09:50:19;;;;;;;15.27;11.60;;;1.30;99.90;;;;;;5116936;28;20259;-79
2022/01/13 09:52:45;;;;;;;14.40;11.33;;;1.50;99.90;;;;;;5100512;28;20216;-79
2022/01/13 09:55:13;;;;;;;14.47;11.23;;;1.30;99.90;;;;;;5100975;28;20176;-79
2022/01/13 09:57:45;;;;;;;18.10;12.50;;;1.60;99.90;;;;;;5099848;28;20191;-79
2022/01/13 10:00:13;;;;;;;17.43;12.20;;;1.80;99.90;;;;;;5094467;28;20211;-80
2022/01/13 10:02:39;;;;;;;17.60;12.53;;;2.00;99.90;;;;;;5081229;28;20259;-79
2022/01/13 10:05:05;;;;;;;15.80;11.93;;;2.20;99.90;;;;;;5093502;28;20243;-79
2022/01/13 10:07:42;;;;;;;16.33;12.10;;;2.60;99.90;;;;;;5100673;28;20172;-80
2022/01/13 10:10:13;;;;;;;15.97;11.93;;;2.60;99.90;;;;;;5099247;28;20707;-79
2022/01/13 10:12:41;;;;;;;17.60;12.60;;;2.40;99.90;;;;;;5090697;28;20245;-79
2022/01/13 10:17:49;;;;;;;15.10;11.50;;;2.10;99.90;;;;;;5080357;28;20165;-80
2022/01/13 10:20:20;;;;;;;19.63;12.30;;;2.10;99.90;;;;;;5085437;28;20345;-79
2022/01/13 10:22:47;;;;;;;16.67;12.67;;;2.40;99.90;;;;;;5100127;28;20181;-80
2022/01/13 10:25:35;;;;;;;15.53;12.77;;;2.60;99.90;;;;;;5084997;28;20193;-79
2022/01/13 10:28:18;;;;;;;17.60;13.40;;;2.70;99.90;;;;;;5096168;28;20177;-79
2022/01/13 10:30:54;;;;;;;16.47;13.23;;;3.00;99.90;;;;;;5079560;28;20601;-79
2022/01/13 10:33:26;;;;;;;17.07;12.60;;;3.00;99.90;;;;;;5078874;28;20173;-79
2022/01/13 10:35:54;;;;;;;16.67;12.43;;;2.90;99.90;;;;;;5066228;28;20172;-79
2022/01/13 10:38:21;;;;;;;16.40;13.00;;;2.70;99.90;;;;;;5092701;28;20207;-80
2022/01/13 10:40:49;;;;;;;18.23;13.00;;;2.80;99.90;;;;;;5098511;28;20266;-79
2022/01/13 10:43:21;;;;;;;21.07;14.03;;;2.40;99.90;;;;;;5099791;28;20183;-79
2022/01/13 10:45:54;;;;;;;17.90;12.93;;;3.00;99.90;;;;;;5096820;28;20205;-79
2022/01/13 10:48:22;;;;;;;15.87;12.50;;;3.20;99.90;;;;;;5080069;28;20609;-80
2022/01/13 10:50:55;;;;;;;20.03;15.37;;;3.40;99.90;;;;;;5078065;28;20195;-79
2022/01/13 10:53:28;;;;;;;16.97;12.67;;;3.50;99.90;;;;;;5093633;28;20174;-79
2022/01/13 10:55:57;;;;;;;17.07;12.90;;;3.50;99.90;;;;;;5098439;28;20589;-79
2022/01/13 10:58:35;;;;;;;15.37;12.30;;;3.20;99.90;;;;;;5101085;28;20180;-79
2022/01/13 11:01:03;;;;;;;16.17;11.83;;;3.00;99.90;;;;;;5099882;28;20204;-79
2022/01/13 11:03:31;;;;;;;17.43;12.93;;;3.50;99.90;;;;;;5102951;28;20180;-79
2022/01/13 11:06:02;;;;;;;19.27;13.87;;;3.80;99.90;;;;;;5092435;28;20200;-79
2022/01/13 11:08:47;;;;;;;18.63;14.20;;;3.80;99.90;;;;;;5079157;28;20252;-79
2022/01/13 11:11:29;;;;;;;16.40;13.00;;;4.10;99.90;;;;;;5093351;28;20202;-79
2022/01/13 11:14:13;;;;;;;16.27;11.70;;;4.50;99.90;;;;;;5097657;28;20205;-78
2022/01/13 11:16:40;;;;;;;16.27;13.20;;;4.10;99.90;;;;;;5097215;28;20181;-79
2022/01/13 11:19:06;;;;;;;15.30;11.90;;;4.10;99.90;;;;;;5094306;28;20636;-78
2022/01/13 11:21:32;;;;;;;17.60;12.83;;;4.20;99.90;;;;;;5078143;28;20183;-79
2022/01/13 11:24:00;;;;;;;16.10;12.33;;;4.40;99.90;;;;;;5076475;28;20192;-79
2022/01/13 11:26:27;;;;;;;14.07;11.80;;;4.80;99.90;;;;;;5088565;28;20664;-79
2022/01/13 11:28:54;;;;;;;14.93;12.17;;;5.20;99.90;;;;;;5096442;28;20261;-78
2022/01/13 11:31:20;;;;;;;16.37;11.80;;;5.10;99.90;;;;;;5098648;28;20668;-79
2022/01/13 11:33:46;;;;;;;16.17;11.93;;;4.80;99.90;;;;;;5096946;28;20203;-78
2022/01/13 11:36:14;;;;;;;13.17;11.03;;;4.90;99.90;;;;;;5097153;28;20657;-79
2022/01/13 11:38:54;;;;;;;14.50;11.70;;;4.90;99.90;;;;;;5097379;28;20197;-78
2022/01/13 11:41:20;;;;;;;14.53;10.60;;;5.20;99.90;;;;;;5097289;28;20167;-79
2022/01/13 11:43:46;;;;;;;14.10;10.63;;;5.10;99.90;;;;;;5096592;28;20244;-79
2022/01/13 11:46:21;;;;;;;14.90;10.90;;;5.40;99.90;;;;;;5097602;28;20192;-78
2022/01/13 11:49:06;;;;;;;13.80;10.33;;;5.40;99.90;;;;;;5098977;28;20158;-79
2022/01/13 11:51:43;;;;;;;14.67;11.77;;;5.50;99.90;;;;;;5101134;28;20206;-78
2022/01/13 11:54:09;;;;;;;15.00;11.77;;;5.50;99.90;;;;;;5097797;28;20179;-79
2022/01/13 11:56:35;;;;;;;17.03;11.37;;;5.80;99.90;;;;;;5096114;28;20187;-78
2022/01/13 11:59:00;;;;;;;14.17;11.27;;;6.30;99.90;;;;;;5096317;28;20588;-78
2022/01/13 12:01:32;;;;;;;15.83;12.00;;;6.80;99.90;;;;;;5096575;28;20516;-78
2022/01/13 12:03:59;;;;;;;14.63;11.30;;;6.90;99.90;;;;;;5112940;28;20234;-78
2022/01/13 12:06:33;;;;;;;14.63;10.77;;;7.30;99.90;;;;;;5112569;28;20759;-78
2022/01/13 12:08:59;;;;;;;14.73;11.60;;;7.10;99.30;;;;;;5095644;28;20232;-79
2022/01/13 12:11:51;;;;;;;14.43;11.17;;;7.20;99.90;;;;;;5096990;28;20513;-78
2022/01/13 12:14:23;;;;;;;16.57;11.30;;;7.30;98.60;;;;;;5096169;28;20173;-78
2022/01/13 12:16:53;;;;;;;15.17;11.57;;;6.80;99.40;;;;;;5094645;28;20187;-77
2022/01/13 12:19:39;;;;;;;14.43;10.83;;;6.10;99.10;;;;;;5096827;28;20209;-78
2022/01/13 12:22:15;;;;;;;13.83;10.13;;;5.40;99.90;;;;;;5095546;28;20157;-79
2022/01/13 12:24:44;;;;;;;11.83;9.63;;;4.90;99.90;;;;;;5094827;28;20641;-78
2022/01/13 12:27:10;;;;;;;12.67;9.10;;;4.30;99.90;;;;;;5094933;28;20207;-78
2022/01/13 12:29:47;;;;;;;15.40;10.40;;;3.80;99.90;;;;;;5093004;28;20203;-77
2022/01/13 12:32:14;;;;;;;14.97;9.37;;;3.60;99.90;;;;;;5093880;28;20165;-78
2022/01/13 12:34:46;;;;;;;10.73;8.23;;;3.40;99.90;;;;;;5092733;28;20237;-77
2022/01/13 12:37:11;;;;;;;14.53;8.60;;;3.40;99.90;;;;;;5093856;28;20179;-77
2022/01/13 12:39:48;;;;;;;13.17;9.00;;;3.40;99.90;;;;;;5093857;28;20555;-77
2022/01/13 12:42:16;;;;;;;14.97;10.20;;;3.40;99.90;;;;;;5092408;28;20216;-77
2022/01/13 12:47:27;;;;;;;13.87;9.07;;;3.20;99.90;;;;;;5093545;28;20165;-77
2022/01/13 12:49:53;;;;;;;14.37;7.80;;;3.20;99.90;;;;;;5093404;28;20558;-77
2022/01/13 12:52:24;;;;;;;14.10;9.23;;;3.10;99.90;;;;;;5093265;28;20178;-77
2022/01/13 12:54:51;;;;;;;16.07;10.40;;;3.30;99.90;;;;;;5097734;28;20173;-76
2022/01/13 12:57:17;;;;;;;15.53;9.37;;;3.30;99.90;;;;;;5097373;28;20251;-76
2022/01/13 12:59:44;;;;;;;16.27;9.77;;;3.30;99.90;;;;;;5097161;28;20392;-77
2022/01/13 13:02:10;;;;;;;17.53;11.13;;;3.30;99.90;;;;;;5095987;28;20174;-76
2022/01/13 13:04:37;;;;;;;16.10;9.87;;;3.20;99.90;;;;;;5097327;28;20314;-76
2022/01/13 13:07:05;;;;;;;15.37;10.93;;;3.00;99.90;;;;;;5097080;28;20283;-76
2022/01/13 13:09:31;;;;;;;14.17;9.40;;;2.90;99.90;;;;;;5095854;28;20193;-76
2022/01/13 13:12:03;;;;;;;18.13;10.80;;;2.80;99.90;;;;;;5095639;28;20587;-76
2022/01/13 13:14:34;;;;;;;14.93;8.87;;;2.70;99.90;;;;;;5098703;28;20164;-77
2022/01/13 13:17:00;;;;;;;16.37;10.33;;;2.60;99.90;;;;;;5097152;28;20252;-77
2022/01/13 13:19:26;;;;;;;14.60;9.30;;;2.60;99.90;;;;;;5096836;28;20470;-77
2022/01/13 13:21:52;;;;;;;17.77;10.93;;;2.50;99.90;;;;;;5097739;28;20172;-78
2022/01/13 13:24:22;;;;;;;16.63;9.63;;;2.50;99.90;;;;;;5096357;28;20684;-78
2022/01/13 13:26:49;;;;;;;14.73;9.10;;;2.50;99.90;;;;;;5096765;28;20507;-78
2022/01/13 13:29:26;;;;;;;14.47;9.23;;;2.50;99.90;;;;;;5096153;28;20287;-76
2022/01/13 13:31:56;;;;;;;15.80;9.13;;;2.50;99.90;;;;;;5094612;28;20800;-79
2022/01/13 13:34:28;;;;;;;15.33;9.20;;;2.50;99.90;;;;;;5095921;28;20410;-78
2022/01/13 13:36:54;;;;;;;16.33;9.77;;;2.50;99.90;;;;;;5095618;28;20418;-78
2022/01/13 13:39:22;;;;;;;17.50;10.73;;;2.40;99.90;;;;;;5096503;28;20499;-78
2022/01/13 13:41:50;;;;;;;20.13;12.77;;;2.20;99.90;;;;;;5096746;28;20176;-77
2022/01/13 13:44:21;;;;;;;26.20;14.40;;;1.80;99.90;;;;;;5095187;28;20425;-77
2022/01/13 13:46:49;;;;;;;21.63;13.43;;;1.40;99.90;;;;;;5096484;28;20502;-77
2022/01/13 13:49:16;;;;;;;27.00;15.00;;;1.20;99.90;;;;;;5096477;28;20787;-78
2022/01/13 13:51:42;;;;;;;26.67;14.60;;;1.00;99.90;;;;;;5096182;28;20434;-77
2022/01/13 13:54:13;;;;;;;30.03;15.90;;;0.90;99.90;;;;;;5094925;28;20450;-77
2022/01/13 13:56:52;;;;;;;27.13;14.37;;;1.00;99.90;;;;;;5095147;28;20172;-77
2022/01/13 13:59:24;;;;;;;26.53;14.43;;;0.90;99.90;;;;;;5111863;28;20457;-77
2022/01/13 14:02:05;;;;;;;30.23;14.73;;;0.80;99.90;;;;;;5095739;28;20406;-77
2022/01/13 14:04:58;;;;;;;24.93;13.63;;;0.70;99.90;;;;;;5096071;28;20393;-77
2022/01/13 14:07:32;;;;;;;27.43;13.87;;;0.50;99.90;;;;;;5094636;28;20430;-77
2022/01/13 14:10:18;;;;;;;23.70;13.23;;;0.30;99.90;;;;;;5096342;28;20426;-77
2022/01/13 14:12:55;;;;;;;28.30;14.63;;;0.20;99.90;;;;;;5096057;28;20903;-77
2022/01/13 14:15:34;;;;;;;23.00;13.50;;;0.10;99.90;;;;;;5095453;28;20413;-77
2022/01/13 14:18:09;;;;;;;25.13;14.67;;;0.10;99.90;;;;;;5094203;28;20398;-77
2022/01/13 14:20:48;;;;;;;32.07;14.53;;;0.30;99.90;;;;;;5093988;28;20479;-77
2022/01/13 14:23:26;;;;;;;26.97;13.57;;;0.30;99.90;;;;;;5094274;28;20818;-78
2022/01/13 14:26:12;;;;;;;26.47;14.23;;;0.30;99.90;;;;;;5095293;28;20520;-77
2022/01/13 14:28:46;;;;;;;27.83;14.17;;;0.40;99.90;;;;;;5095843;28;20864;-77
2022/01/13 14:31:12;;;;;;;24.73;14.57;;;0.30;99.90;;;;;;5095005;28;20429;-77
2022/01/13 14:33:48;;;;;;;29.70;15.67;;;0.50;99.90;;;;;;5095255;28;20405;-77
2022/01/13 14:36:23;;;;;;;29.70;14.40;;;0.60;99.90;;;;;;5095182;28;20409;-77
2022/01/13 14:38:58;;;;;;;26.23;13.47;;;0.70;99.90;;;;;;5093895;28;20413;-77
2022/01/13 14:41:27;;;;;;;29.10;14.20;;;0.70;99.90;;;;;;5095051;28;20390;-77
2022/01/13 14:44:03;;;;;;;27.20;14.50;;;0.70;99.90;;;;;;5093712;28;20503;-77
2022/01/13 14:46:31;;;;;;;25.33;13.70;;;0.80;99.90;;;;;;5095274;28;20448;-77
2022/01/13 14:48:57;;;;;;;26.60;14.47;;;0.80;99.90;;;;;;5094856;28;20419;-77
2022/01/13 14:51:25;;;;;;;29.47;15.27;;;0.80;99.90;;;;;;5094861;28;20527;-77
2022/01/13 14:53:51;;;;;;;27.03;15.43;;;1.00;99.90;;;;;;5094917;28;20168;-77
2022/01/13 14:56:19;;;;;;;28.17;14.97;;;0.80;99.90;;;;;;5094804;28;20506;-77
2022/01/13 14:58:45;;;;;;;27.37;14.93;;;0.90;99.90;;;;;;5093316;28;20208;-77
2022/01/13 15:01:14;;;;;;;29.03;16.33;;;0.60;99.90;;;;;;5094469;28;20433;-77
2022/01/13 15:03:40;;;;;;;27.43;15.13;;;0.60;99.90;;;;;;5093384;28;20418;-77
2022/01/13 15:06:07;;;;;;;27.57;14.90;;;0.60;99.90;;;;;;5094737;28;20468;-77
2022/01/13 15:08:33;;;;;;;27.07;14.57;;;0.50;99.90;;;;;;5094718;28;20489;-77
2022/01/13 15:10:59;;;;;;;28.13;15.47;;;0.30;99.90;;;;;;5094316;28;20438;-77
2022/01/13 15:13:26;;;;;;;29.77;14.70;;;0.40;99.90;;;;;;5054207;28;20783;-77
2022/01/13 15:15:52;;;;;;;36.73;18.53;;;0.40;99.90;;;;;;5052299;28;20428;-77
2022/01/13 15:18:19;;;;;;;38.63;17.80;;;0.40;99.90;;;;;;5052980;28;20937;-77
2022/01/13 15:20:46;;;;;;;31.33;17.43;;;0.40;99.90;;;;;;5055892;28;20980;-77
2022/01/13 15:23:12;;;;;;;32.80;16.37;;;0.40;99.90;;;;;;5052843;28;20415;-78
2022/01/13 15:25:38;;;;;;;30.13;15.53;;;0.30;99.90;;;;;;5053929;28;20460;-77
2022/01/13 15:28:05;;;;;;;28.63;12.33;;;0.30;99.90;;;;;;5053982;28;20635;-77
2022/01/13 15:30:31;;;;;;;24.93;13.60;;;0.10;99.90;;;;;;5052378;28;20436;-77
2022/01/13 15:32:57;;;;;;;30.80;14.50;;;0.00;99.90;;;;;;5054002;28;20416;-77
2022/01/13 15:35:22;;;;;;;28.50;13.67;;;0.00;99.90;;;;;;5053869;28;20415;-77
2022/01/13 15:37:49;;;;;;;22.97;12.90;;;0.00;99.90;;;;;;5030295;28;20311;-77
2022/01/13 15:40:16;;;;;;;27.90;14.97;;;-0.10;99.90;;;;;;5064053;28;20224;-77
2022/01/13 15:42:46;;;;;;;29.10;15.27;;;0.00;99.90;;;;;;5053662;28;20426;-77
2022/01/13 15:45:15;;;;;;;29.17;15.37;;;-0.20;99.90;;;;;;5052365;28;20427;-77
2022/01/13 15:47:42;;;;;;;24.60;14.13;;;-0.20;99.90;;;;;;5052424;28;20431;-77
2022/01/13 15:50:12;;;;;;;26.57;13.17;;;-0.30;99.90;;;;;;5053213;28;20439;-77
2022/01/13 15:52:37;;;;;;;51.53;21.87;;;-0.30;99.90;;;;;;5052288;28;20478;-77
2022/01/13 15:55:06;;;;;;;45.07;20.73;;;0.00;99.90;;;;;;5053620;28;20412;-77
2022/01/13 15:57:32;;;;;;;44.17;21.43;;;-0.30;99.90;;;;;;5053497;28;20181;-77
2022/01/13 15:59:58;;;;;;;40.53;18.37;;;-0.30;99.90;;;;;;5053499;28;20511;-77
2022/01/13 16:02:24;;;;;;;38.07;17.33;;;;;;;;;;5053536;28;20582;-77
2022/01/13 16:04:53;;;;;;;37.97;18.33;;;-0.30;99.90;;;;;;5053486;28;20200;-78
2022/01/13 16:07:18;;;;;;;32.57;16.30;;;-0.30;99.90;;;;;;5053358;28;20474;-75
2022/01/13 16:09:44;;;;;;;36.50;18.17;;;-0.30;99.90;;;;;;5053398;28;20522;-76
2022/01/13 16:12:11;;;;;;;39.73;19.73;;;-0.30;99.90;;;;;;5053187;28;20250;-75
2022/01/13 16:14:37;;;;;;;29.77;15.47;;;-0.50;99.90;;;;;;5053396;28;20181;-77
2022/01/13 16:17:03;;;;;;;41.80;19.27;;;-0.40;99.90;;;;;;5053433;28;20416;-76
2022/01/13 16:19:29;;;;;;;51.77;25.07;;;;;;;;;;5053303;28;20436;-77
2022/01/13 16:21:55;;;;;;;49.23;23.43;;;;;;;;;;5053111;28;20853;-75
2022/01/13 16:24:21;;;;;;;38.63;18.97;;;-0.60;99.90;;;;;;5051280;28;20205;-75
2022/01/13 16:26:47;;;;;;;39.83;20.67;;;-0.60;99.90;;;;;;5052820;28;21024;-75
2022/01/13 16:29:53;;;;;;;58.17;28.73;;;-0.70;99.90;;;;;;5056621;28;20169;-75
2022/01/13 16:32:23;;;;;;;60.73;29.53;;;-0.50;99.90;;;;;;5054977;28;20647;-75
2022/01/13 16:34:49;;;;;;;67.63;35.27;;;-0.70;99.90;;;;;;5056429;28;20396;-75
2022/01/13 16:37:15;;;;;;;45.80;24.17;;;-0.40;99.90;;;;;;5056605;28;20423;-75
2022/01/13 16:39:41;;;;;;;42.50;21.40;;;-0.70;99.90;;;;;;5056859;28;20428;-76
2022/01/13 16:42:07;;;;;;;40.73;21.37;;;-0.10;99.90;;;;;;5056964;28;20216;-75
2022/01/13 16:44:32;;;;;;;40.60;22.70;;;-0.80;99.90;;;;;;5057432;28;20192;-75
2022/01/13 16:46:58;;;;;;;34.83;18.40;;;-0.80;99.90;;;;;;5056831;28;20452;-76
2022/01/13 16:49:24;;;;;;;40.50;18.60;;;-0.90;99.90;;;;;;5057183;28;20228;-75
2022/01/13 16:51:49;;;;;;;35.87;18.03;;;-0.90;99.90;;;;;;5055814;28;20220;-75
2022/01/13 16:54:18;;;;;;;35.17;16.80;;;-1.00;99.90;;;;;;5061049;28;20261;-75
2022/01/13 16:56:44;;;;;;;40.80;21.77;;;-1.00;99.90;;;;;;5056757;28;20165;-76
2022/01/13 16:59:10;;;;;;;43.70;22.20;;;-0.90;99.90;;;;;;5056564;28;20423;-75
2022/01/13 17:01:36;;;;;;;42.57;23.57;;;-0.90;99.90;;;;;;5055165;28;20428;-76
2022/01/13 17:04:01;;;;;;;42.87;22.80;;;-0.90;99.90;;;;;;5056613;28;20416;-75
2022/01/13 17:06:27;;;;;;;43.47;22.67;;;-0.80;99.90;;;;;;5056512;28;20206;-76
2022/01/13 17:08:53;;;;;;;38.73;20.00;;;-1.00;99.90;;;;;;5031248;28;20222;-75
2022/01/13 17:11:19;;;;;;;41.97;20.63;;;-1.00;99.90;;;;;;5064337;28;20225;-77
2022/01/13 17:13:45;;;;;;;36.37;19.03;;;-1.10;99.90;;;;;;5056368;28;20411;-76